Time;durP1;ratioP1;P1;durP2;ratioP2;P2;SDS_P1;SDS_P2;PMS_P1;PMS_P2;Temp;Humidity;BMP_temperature;BMP_pressure;BME280_temperature;BME280_humidity;BME280_pressure;Samples;Min_cycle;Max_cycle;Signal;HPM_P1;HPM_P2
2023/04/08 00:00:53;;;;;;;41.10;29.90;;;;;;;2.84;100.00;99067.53;109250;1255;66044;-79
2023/04/08 00:03:20;;;;;;;38.30;28.00;;;;;;;2.82;100.00;99070.06;109236;1255;59019;-79
2023/04/08 00:05:47;;;;;;;39.30;28.20;;;;;;;2.80;100.00;99068.17;109272;1256;63858;-79
2023/04/08 00:08:13;;;;;;;40.00;29.70;;;;;;;2.81;100.00;99067.48;109244;1256;59433;-79
2023/04/08 00:10:40;;;;;;;40.50;27.40;;;;;;;2.80;100.00;99068.04;109195;1256;59092;-77
2023/04/08 00:13:06;;;;;;;34.50;25.30;;;;;;;2.78;100.00;99070.01;109571;1250;66490;-77
2023/04/08 00:15:36;;;;;;;40.10;29.50;;;;;;;2.78;100.00;99070.73;109718;1251;59003;-76
2023/04/08 00:18:02;;;;;;;40.60;30.10;;;;;;;2.78;100.00;99069.85;109678;1249;65049;-76
2023/04/08 00:20:29;;;;;;;37.60;29.30;;;;;;;2.78;100.00;99067.95;109668;1250;58969;-77
2023/04/08 00:22:55;;;;;;;42.20;29.50;;;;;;;2.78;100.00;99070.56;109700;1250;58995;-76
2023/04/08 00:25:22;;;;;;;39.20;28.00;;;;;;;2.78;100.00;99070.38;109697;1250;59602;-76
2023/04/08 00:27:48;;;;;;;42.30;29.80;;;;;;;2.77;100.00;99071.98;109682;1250;60207;-76
2023/04/08 00:30:15;;;;;;;40.40;29.30;;;;;;;2.78;100.00;99073.55;109481;1249;64109;-76
2023/04/08 00:32:42;;;;;;;40.80;28.20;;;;;;;2.78;100.00;99075.83;109663;1253;58964;-76
2023/04/08 00:35:09;;;;;;;39.50;30.90;;;;;;;2.78;100.00;99080.03;109698;1249;59007;-76
2023/04/08 00:37:36;;;;;;;38.80;30.30;;;;;;;2.78;100.00;99082.13;108925;1249;1006846;-76
2023/04/08 00:40:03;;;;;;;39.50;29.70;;;;;;;2.78;100.00;99081.08;109484;1250;59027;-76
2023/04/08 00:42:29;;;;;;;40.20;29.30;;;;;;;2.78;100.00;99080.00;109689;1249;64068;-76
2023/04/08 00:44:56;;;;;;;39.60;29.70;;;;;;;2.77;100.00;99080.75;109319;1250;59035;-76
2023/04/08 00:47:23;;;;;;;40.30;30.30;;;;;;;2.77;100.00;99085.31;109737;1249;59184;-76
2023/04/08 00:49:49;;;;;;;41.30;31.10;;;;;;;2.77;100.00;99089.70;109648;1250;66155;-76
2023/04/08 00:52:16;;;;;;;39.50;31.50;;;;;;;2.76;100.00;99085.17;109644;1249;60117;-76
2023/04/08 00:54:42;;;;;;;40.50;32.10;;;;;;;2.75;100.00;99087.31;109686;1250;62875;-76
2023/04/08 00:57:09;;;;;;;41.50;30.90;;;;;;;2.75;100.00;99092.24;109694;1251;58996;-76
2023/04/08 00:59:36;;;;;;;37.50;29.20;;;;;;;2.75;100.00;99088.02;109704;1249;59104;-77
2023/04/08 01:02:11;;;;;;;39.10;29.80;;;;;;;2.74;100.00;99089.10;109707;1249;64920;-77
2023/04/08 01:05:01;;;;;;;36.80;29.10;;;;;;;2.74;100.00;99090.50;109674;1249;59061;-77
2023/04/08 01:07:34;;;;;;;35.00;27.30;;;;;;;2.75;100.00;99090.29;109641;1250;62648;-77
2023/04/08 01:10:15;;;;;;;40.70;30.50;;;;;;;2.75;100.00;99092.91;109647;1249;58984;-76
2023/04/08 01:13:11;;;;;;;40.40;31.60;;;;;;;2.75;100.00;99094.32;109693;1251;59829;-76
2023/04/08 01:15:40;;;;;;;42.30;32.70;;;;;;;2.76;100.00;99096.57;108924;1259;64872;-76
2023/04/08 01:18:09;;;;;;;35.00;26.60;;;;;;;2.77;100.00;99100.24;108800;1259;59468;-76
2023/04/08 01:20:37;;;;;;;33.50;25.60;;;;;;;2.74;100.00;99102.77;108897;1259;62888;-76
2023/04/08 01:23:18;;;;;;;32.80;25.30;;;;;;;2.71;100.00;99104.47;108185;1259;1003034;-76
2023/04/08 01:25:52;;;;;;;33.30;25.50;;;;;;;2.66;100.00;99105.88;108891;1259;59174;-76
2023/04/08 01:28:21;;;;;;;32.80;25.90;;;;;;;2.63;100.00;99104.02;108947;1259;65308;-76
2023/04/08 01:30:48;;;;;;;32.50;25.40;;;;;;;2.62;100.00;99105.27;108886;1259;60331;-76
2023/04/08 01:33:17;;;;;;;31.90;24.70;;;;;;;2.62;100.00;99105.14;108871;1259;62825;-77
2023/04/08 01:35:44;;;;;;;29.40;23.50;;;;;;;2.61;100.00;99102.00;108921;1259;59021;-77
2023/04/08 01:38:15;;;;;;;32.10;24.70;;;;;;;2.60;100.00;99105.16;108911;1259;59108;-76
2023/04/08 01:40:43;;;;;;;32.10;25.50;;;;;;;2.59;100.00;99106.10;108969;1259;64879;-76
2023/04/08 01:43:13;;;;;;;34.10;27.50;;;;;;;2.57;100.00;99109.45;108954;1259;59327;-78
2023/04/08 01:45:42;;;;;;;34.20;26.50;;;;;;;2.57;100.00;99111.59;108959;1259;64156;-76
2023/04/08 01:48:10;;;;;;;36.20;27.60;;;;;;;2.55;100.00;99113.39;108809;1259;59147;-77
2023/04/08 01:50:39;;;;;;;35.80;27.30;;;;;;;2.54;100.00;99115.70;108949;1263;59475;-76
2023/04/08 01:53:08;;;;;;;35.50;27.20;;;;;;;2.54;100.00;99115.72;109388;1249;64866;-81
2023/04/08 01:55:36;;;;;;;30.50;24.20;;;;;;;2.53;100.00;99121.02;109602;1250;58947;-81
2023/04/08 01:58:06;;;;;;;35.70;27.50;;;;;;;2.51;100.00;99121.27;109782;1250;62831;-80
2023/04/08 02:00:42;;;;;;;35.90;27.20;;;;;;;2.48;100.00;99121.70;109647;1250;58370;-80
2023/04/08 02:03:11;;;;;;;35.00;27.30;;;;;;;2.47;100.00;99124.91;109670;1249;59337;-80
2023/04/08 02:05:38;;;;;;;35.30;27.00;;;;;;;2.46;100.00;99123.91;109610;1249;65832;-81
2023/04/08 02:08:05;;;;;;;37.40;28.60;;;;;;;2.46;100.00;99123.90;109368;1257;60685;-80
2023/04/08 02:10:32;;;;;;;35.80;27.30;;;;;;;2.45;100.00;99127.77;109663;1250;71711;-81
2023/04/08 02:12:59;;;;;;;38.30;28.80;;;;;;;2.42;100.00;99128.56;109655;1251;58953;-81
2023/04/08 02:15:32;;;;;;;35.10;28.10;;;;;;;2.41;100.00;99130.00;109412;1250;59384;-81
2023/04/08 02:18:07;;;;;;;31.70;24.20;;;;;;;2.40;100.00;99133.52;109094;1256;66055;-81
2023/04/08 02:20:38;;;;;;;33.80;26.30;;;;;;;2.36;100.00;99137.32;108985;1256;60396;-80
2023/04/08 02:23:09;;;;;;;37.50;28.80;;;;;;;2.34;100.00;99136.18;108968;1256;64063;-82
2023/04/08 02:25:39;;;;;;;36.40;28.30;;;;;;;2.32;100.00;99138.88;109017;1255;59104;-81
2023/04/08 02:28:08;;;;;;;39.00;29.90;;;;;;;2.31;100.00;99141.52;109000;1257;58964;-81
2023/04/08 02:30:36;;;;;;;35.70;26.60;;;;;;;2.29;100.00;99145.45;107534;1257;1006773;-80
2023/04/08 02:33:04;;;;;;;34.70;28.10;;;;;;;2.26;100.00;99145.37;109065;1258;60169;-81
2023/04/08 02:35:31;;;;;;;36.70;26.60;;;;;;;2.24;100.00;99144.90;108961;1257;64041;-82
2023/04/08 02:37:58;;;;;;;31.90;24.60;;;;;;;2.22;100.00;99144.97;108813;1262;58949;-82
2023/04/08 02:40:26;;;;;;;35.40;26.60;;;;;;;2.21;100.00;99147.80;108280;1258;1002944;-82
2023/04/08 02:42:54;;;;;;;35.40;27.30;;;;;;;2.19;100.00;99146.80;109018;1257;67236;-81
2023/04/08 02:45:21;;;;;;;37.70;28.30;;;;;;;2.18;100.00;99146.30;108961;1258;60239;-81
2023/04/08 02:47:47;;;;;;;35.90;28.00;;;;;;;2.19;100.00;99147.33;108843;1258;62873;-81
2023/04/08 02:50:14;;;;;;;38.60;28.60;;;;;;;2.18;100.00;99145.96;109143;1254;59044;-81
2023/04/08 02:52:42;;;;;;;36.60;28.60;;;;;;;2.16;100.00;99152.13;109501;1252;59422;-82
2023/04/08 02:55:09;;;;;;;34.90;26.10;;;;;;;2.16;100.00;99155.48;109194;1253;66491;-82
2023/04/08 02:57:39;;;;;;;40.50;30.40;;;;;;;2.16;100.00;99159.54;109258;1254;59035;-79
2023/04/08 03:00:07;;;;;;;39.30;29.90;;;;;;;2.14;100.00;99158.70;109641;1250;62852;-81
2023/04/08 03:02:34;;;;;;;33.70;27.40;;;;;;;2.12;100.00;99164.71;109506;1251;58993;-81
2023/04/08 03:05:01;;;;;;;34.60;26.30;;;;;;;2.08;100.00;99165.70;109716;1251;59394;-81
2023/04/08 03:07:27;;;;;;;35.20;25.70;;;;;;;2.04;100.00;99164.77;109525;1249;65682;-81
2023/04/08 03:09:54;;;;;;;34.20;27.70;;;;;;;2.01;100.00;99165.92;109714;1250;59043;-80
2023/04/08 03:12:21;;;;;;;31.10;26.00;;;;;;;1.97;100.00;99168.12;109692;1250;62842;-81
2023/04/08 03:14:49;;;;;;;39.30;29.90;;;;;;;1.95;100.00;99171.71;109642;1250;59075;-82
2023/04/08 03:17:16;;;;;;;35.80;28.20;;;;;;;1.94;100.00;99174.02;109702;1251;59226;-81
2023/04/08 03:19:42;;;;;;;37.10;29.00;;;;;;;1.91;100.00;99174.98;109687;1250;64826;-82
2023/04/08 03:22:09;;;;;;;38.20;27.10;;;;;;;1.86;100.00;99175.27;109685;1250;60271;-80
2023/04/08 03:24:36;;;;;;;36.60;28.30;;;;;;;1.81;100.00;99177.17;109685;1249;64067;-81
2023/04/08 03:27:02;;;;;;;34.70;27.80;;;;;;;1.79;100.00;99179.54;109528;1251;59276;-81
2023/04/08 03:29:29;;;;;;;34.30;27.40;;;;;;;1.74;100.00;99176.84;109537;1250;59069;-81
2023/04/08 03:31:55;;;;;;;32.90;26.20;;;;;;;1.72;100.00;99182.16;109682;1250;58992;-81
2023/04/08 03:34:22;;;;;;;34.70;26.20;;;;;;;1.69;100.00;99183.83;109679;1251;60220;-81
2023/04/08 03:36:49;;;;;;;35.60;27.10;;;;;;;1.65;100.00;99184.45;109695;1250;63769;-82
2023/04/08 03:39:16;;;;;;;34.40;25.60;;;;;;;1.64;100.00;99185.20;109708;1249;59012;-82
2023/04/08 03:41:42;;;;;;;32.30;26.20;;;;;;;1.64;100.00;99189.05;109381;1250;59274;-82
2023/04/08 03:44:09;;;;;;;35.00;25.50;;;;;;;1.64;100.00;99190.11;109585;1250;65728;-82
2023/04/08 03:46:35;;;;;;;34.60;27.70;;;;;;;1.63;100.00;99193.27;109865;1251;59035;-81
2023/04/08 03:49:02;;;;;;;33.50;26.30;;;;;;;1.62;100.00;99194.88;109696;1251;62851;-82
2023/04/08 03:51:28;;;;;;;32.70;26.90;;;;;;;1.60;100.00;99198.60;109790;1250;58994;-81
2023/04/08 03:53:55;;;;;;;35.20;28.30;;;;;;;1.60;100.00;99200.70;109707;1251;59026;-81
2023/04/08 03:56:21;;;;;;;35.60;28.30;;;;;;;1.60;100.00;99197.73;109703;1250;59347;-82
2023/04/08 03:58:48;;;;;;;32.80;26.50;;;;;;;1.60;100.00;99199.13;109471;1251;59157;-81
2023/04/08 04:01:14;;;;;;;38.10;29.40;;;;;;;1.61;100.00;99200.16;109681;1251;62474;-81
2023/04/08 04:03:41;;;;;;;33.60;25.90;;;;;;;1.60;100.00;99200.70;109408;1250;58984;-82
2023/04/08 04:06:07;;;;;;;41.40;30.90;;;;;;;1.59;100.00;99203.02;108167;1251;1002945;-81
2023/04/08 04:08:34;;;;;;;37.50;29.70;;;;;;;1.59;100.00;99207.23;109667;1250;66021;-80
2023/04/08 04:11:01;;;;;;;37.40;28.10;;;;;;;1.59;100.00;99210.55;109701;1251;59052;-81
2023/04/08 04:13:28;;;;;;;36.30;24.50;;;;;;;1.56;100.00;99212.73;109639;1251;64046;-81
2023/04/08 04:15:54;;;;;;;32.30;25.20;;;;;;;1.51;100.00;99215.13;109668;1251;59043;-81
2023/04/08 04:18:21;;;;;;;31.60;24.40;;;;;;;1.46;100.00;99216.48;109732;1251;59023;-81
2023/04/08 04:20:47;;;;;;;32.50;24.40;;;;;;;1.44;100.00;99221.46;109664;1251;66070;-81
2023/04/08 04:23:14;;;;;;;33.40;24.70;;;;;;;1.41;100.00;99223.27;109686;1249;59034;-81
2023/04/08 04:25:41;;;;;;;33.90;24.60;;;;;;;1.40;100.00;99228.40;109634;1251;58960;-81
2023/04/08 04:28:08;;;;;;;30.30;22.00;;;;;;;1.38;100.00;99228.26;109701;1249;58950;-81
2023/04/08 04:30:39;;;;;;;29.90;22.60;;;;;;;1.36;100.00;99227.09;109706;1251;58920;-81
2023/04/08 04:33:06;;;;;;;28.80;21.20;;;;;;;1.35;100.00;99225.72;108143;1251;1002427;-81
2023/04/08 04:35:32;;;;;;;26.70;19.50;;;;;;;1.34;100.00;99228.17;109696;1249;59870;-81
2023/04/08 04:37:59;;;;;;;30.90;24.50;;;;;;;1.34;100.00;99232.56;109684;1251;62828;-81
2023/04/08 04:40:25;;;;;;;32.10;23.10;;;;;;;1.34;100.00;99233.45;109646;1250;58973;-81
2023/04/08 04:42:52;;;;;;;32.20;24.50;;;;;;;1.34;100.00;99236.06;109552;1250;59002;-80
2023/04/08 04:45:19;;;;;;;33.10;25.50;;;;;;;1.37;100.00;99236.33;109725;1251;59408;-81
2023/04/08 04:47:45;;;;;;;33.00;23.80;;;;;;;1.40;100.00;99240.46;109715;1249;60207;-81
2023/04/08 04:50:12;;;;;;;32.80;24.90;;;;;;;1.41;100.00;99241.30;109682;1251;59003;-81
2023/04/08 04:52:38;;;;;;;35.00;24.50;;;;;;;1.42;100.00;99243.20;109756;1250;59113;-80
2023/04/08 04:55:05;;;;;;;33.60;24.30;;;;;;;1.43;100.00;99245.13;109574;1251;58973;-81
2023/04/08 04:57:32;;;;;;;35.00;25.30;;;;;;;1.43;100.00;99248.44;109587;1251;66102;-81
2023/04/08 04:59:58;;;;;;;33.70;24.30;;;;;;;1.47;100.00;99252.35;109528;1256;67779;-81
2023/04/08 05:02:25;;;;;;;33.80;25.70;;;;;;;1.58;100.00;99251.20;109783;1250;58869;-81
2023/04/08 05:04:54;;;;;;;35.10;26.40;;;;;;;1.63;100.00;99252.63;109780;1253;59045;-81
2023/04/08 05:07:21;;;;;;;36.00;25.30;;;;;;;1.69;100.00;99256.67;109764;1253;58859;-81
2023/04/08 05:09:48;;;;;;;32.30;24.10;;;;;;;1.77;100.00;99261.73;109588;1251;64841;-82
2023/04/08 05:12:15;;;;;;;33.00;24.40;;;;;;;1.83;100.00;99261.55;108749;1251;1002204;-81
2023/04/08 05:14:42;;;;;;;32.30;24.60;;;;;;;1.91;100.00;99262.58;109659;1249;64051;-82
2023/04/08 05:17:08;;;;;;;30.60;24.30;;;;;;;1.94;100.00;99268.80;109716;1249;59256;-81
2023/04/08 05:19:35;;;;;;;32.50;25.00;;;;;;;1.97;100.00;99272.20;109654;1251;58911;-81
2023/04/08 05:22:01;;;;;;;28.70;22.80;;;;;;;2.01;100.00;99273.88;109660;1249;59644;-83
2023/04/08 05:24:28;;;;;;;30.30;23.70;;;;;;;2.08;100.00;99279.98;109666;1251;59369;-82
2023/04/08 05:26:56;;;;;;;28.00;23.40;;;;;;;2.14;100.00;99278.24;109352;1251;62780;-82
2023/04/08 05:29:23;;;;;;;30.10;23.70;;;;;;;2.29;100.00;99282.02;109665;1250;59788;-82
2023/04/08 05:31:49;;;;;;;26.50;22.20;;;;;;;2.37;100.00;99286.15;109695;1251;58863;-82
2023/04/08 05:34:21;;;;;;;29.00;22.90;;;;;;;2.38;100.00;99287.18;109590;1250;66011;-82
2023/04/08 05:36:52;;;;;;;25.10;21.60;;;;;;;2.39;100.00;99284.70;109701;1249;59036;-82
2023/04/08 05:39:19;;;;;;;28.70;23.60;;;;;;;2.45;100.00;99288.58;109498;1251;64044;-82
2023/04/08 05:41:45;;;;;;;30.40;23.60;;;;;;;2.49;100.00;99287.58;109517;1251;59312;-82
2023/04/08 05:44:13;;;;;;;25.40;21.50;;;;;;;2.53;100.00;99288.69;109414;1251;59051;-81
2023/04/08 05:46:39;;;;;;;24.90;20.20;;;;;;;2.55;100.00;99295.45;109696;1250;66041;-83
2023/04/08 05:49:06;;;;;;;25.20;20.80;;;;;;;2.56;100.00;99300.87;109691;1251;59116;-81
2023/04/08 05:51:32;;;;;;;28.70;20.70;;;;;;;2.55;100.00;99302.46;109655;1251;59323;-82
2023/04/08 05:53:59;;;;;;;27.70;22.70;;;;;;;2.61;100.00;99306.17;109526;1251;60292;-80
2023/04/08 05:56:26;;;;;;;26.10;20.70;;;;;;;2.70;100.00;99306.40;109706;1249;59012;-82
2023/04/08 05:58:52;;;;;;;24.90;20.60;;;;;;;2.80;100.00;99308.05;109394;1250;66145;-82
2023/04/08 06:01:19;;;;;;;23.00;19.00;;;;;;;2.81;100.00;99315.73;109693;1250;59117;-82
2023/04/08 06:03:45;;;;;;;23.20;19.70;;;;;;;2.84;100.00;99314.95;109723;1251;63759;-81
2023/04/08 06:06:12;;;;;;;22.80;19.10;;;;;;;2.86;100.00;99315.77;109653;1250;58932;-81
2023/04/08 06:08:39;;;;;;;21.00;18.70;;;;;;;2.84;100.00;99320.91;109673;1251;58963;-81
2023/04/08 06:11:06;;;;;;;21.10;17.80;;;;;;;2.90;100.00;99323.88;109706;1250;66011;-81
2023/04/08 06:13:33;;;;;;;21.90;19.70;;;;;;;3.10;100.00;99319.05;109721;1250;59081;-82
2023/04/08 06:16:12;;;;;;;21.80;18.70;;;;;;;3.39;100.00;99318.30;109522;1251;62772;-82
2023/04/08 06:18:38;;;;;;;22.00;19.30;;;;;;;3.57;100.00;99318.92;109652;1250;59271;-82
2023/04/08 06:21:05;;;;;;;27.20;22.20;;;;;;;3.79;100.00;99316.09;109687;1251;60520;-82
2023/04/08 06:23:32;;;;;;;24.90;20.20;;;;;;;3.99;100.00;99313.66;109715;1251;64824;-83
2023/04/08 06:25:58;;;;;;;23.70;20.40;;;;;;;4.18;100.00;99313.50;109690;1250;59125;-82
2023/04/08 06:28:25;;;;;;;20.90;18.80;;;;;;;4.39;100.00;99317.48;109548;1251;65229;-82
2023/04/08 06:30:51;;;;;;;19.90;17.80;;;;;;;4.54;100.00;99316.95;109642;1249;58973;-81
2023/04/08 06:33:18;;;;;;;19.70;17.60;;;;;;;4.56;100.00;99326.53;109363;1250;59177;-76
2023/04/08 06:35:44;;;;;;;19.40;17.10;;;;;;;4.75;100.00;99325.66;109641;1253;59166;-76
2023/04/08 06:38:11;;;;;;;18.80;16.80;;;;;;;4.83;100.00;99330.27;109677;1249;59849;-75
2023/04/08 06:40:39;;;;;;;18.50;16.40;;;;;;;4.78;100.00;99334.16;109669;1250;64028;-75
2023/04/08 06:43:06;;;;;;;17.40;15.60;;;;;;;4.66;100.00;99343.95;109684;1251;59052;-75
2023/04/08 06:45:33;;;;;;;18.50;16.60;;;;;;;4.57;100.00;99349.02;109675;1251;59055;-74
2023/04/08 06:48:00;;;;;;;18.70;16.80;;;;;;;4.58;100.00;99351.09;109703;1251;65986;-74
2023/04/08 06:50:26;;;;;;;21.50;18.70;;;;;;;4.67;100.00;99352.72;109699;1250;59027;-74
2023/04/08 06:52:54;;;;;;;18.70;16.70;;;;;;;4.68;100.00;99350.77;109368;1251;63763;-75
2023/04/08 06:55:20;;;;;;;18.90;16.20;;;;;;;4.59;100.00;99356.02;109657;1251;59203;-75
2023/04/08 06:57:47;;;;;;;18.50;16.60;;;;;;;4.42;100.00;99364.35;109668;1250;58928;-74
2023/04/08 07:00:14;;;;;;;19.60;15.90;;;;;;;4.33;100.00;99366.27;108936;1249;1002338;-74
2023/04/08 07:02:40;;;;;;;18.60;16.20;;;;;;;4.32;100.00;99364.20;109661;1249;61305;-75
2023/04/08 07:05:07;;;;;;;19.50;17.40;;;;;;;4.30;100.00;99365.31;109661;1250;62920;-75
2023/04/08 07:07:34;;;;;;;18.90;16.90;;;;;;;4.30;100.00;99371.66;109669;1249;58917;-75
2023/04/08 07:10:00;;;;;;;17.90;16.10;;;;;;;4.32;100.00;99372.63;109652;1251;59006;-75
2023/04/08 07:12:27;;;;;;;19.50;17.40;;;;;;;4.33;100.00;99372.77;109680;1250;64800;-74
2023/04/08 07:14:53;;;;;;;19.30;16.80;;;;;;;4.41;100.00;99371.09;109664;1250;60174;-75
2023/04/08 07:17:20;;;;;;;18.20;16.30;;;;;;;4.45;100.00;99375.52;109547;1251;64030;-75
2023/04/08 07:19:46;;;;;;;18.30;16.30;;;;;;;4.52;100.00;99382.14;109622;1251;59033;-73
2023/04/08 07:22:13;;;;;;;18.10;16.30;;;;;;;4.62;100.00;99384.04;109658;1251;59272;-74
2023/04/08 07:24:41;;;;;;;17.30;15.50;;;;;;;4.84;100.00;99384.82;109667;1249;64816;-75
2023/04/08 07:27:08;;;;;;;19.40;17.40;;;;;;;5.01;100.00;99386.11;109449;1251;59048;-75
2023/04/08 07:29:34;;;;;;;22.50;19.70;;;;;;;5.20;100.00;99388.58;109684;1250;63121;-74
2023/04/08 07:32:01;;;;;;;20.90;18.70;;;;;;;5.49;100.00;99390.42;109667;1251;59468;-75
2023/04/08 07:34:27;;;;;;;18.90;17.10;;;;;;;5.85;100.00;99389.33;109669;1251;59097;-75
2023/04/08 07:36:54;;;;;;;18.00;16.10;;;;;;;6.16;100.00;99385.57;109665;1251;59026;-76
2023/04/08 07:39:20;;;;;;;17.80;16.10;;;;;;;6.45;100.00;99384.52;109494;1251;60249;-75
2023/04/08 07:41:47;;;;;;;19.80;17.80;;;;;;;6.76;100.00;99383.14;109721;1251;62952;-75
2023/04/08 07:44:15;;;;;;;20.50;18.30;;;;;;;6.85;100.00;99383.27;109646;1251;59303;-77
2023/04/08 07:46:44;;;;;;;19.10;14.70;;;;;;;6.77;100.00;99386.63;109699;1250;58987;-77
2023/04/08 07:49:11;;;;;;;18.70;16.80;;;;;;;6.67;100.00;99389.53;109515;1250;66531;-75
2023/04/08 07:51:38;;;;;;;18.20;16.30;;;;;;;6.67;100.00;99387.60;109724;1251;60047;-76
2023/04/08 07:54:04;;;;;;;33.80;30.60;;;;;;;6.69;100.00;99388.39;109355;1251;64050;-76
2023/04/08 07:56:31;;;;;;;24.20;21.90;;;;;;;6.75;100.00;99390.41;109629;1249;58969;-76
2023/04/08 07:58:58;;;;;;;28.60;25.80;;;;;;;6.75;100.00;99391.46;109705;1250;59077;-76
2023/04/08 08:01:26;;;;;;;24.80;22.50;;;;;;;6.85;100.00;99392.27;109683;1251;66055;-76
2023/04/08 08:03:53;;;;;;;17.10;15.50;;;;;;;6.91;100.00;99390.92;109704;1250;59906;-76
2023/04/08 08:06:20;;;;;;;17.00;15.20;;;;;;;6.73;100.00;99393.35;109683;1250;64024;-77
2023/04/08 08:08:47;;;;;;;15.50;14.00;;;;;;;6.54;100.00;99393.62;109678;1250;59027;-76
2023/04/08 08:11:13;;;;;;;15.70;14.00;;;;;;;6.46;100.00;99398.23;109694;1249;58875;-77
2023/04/08 08:13:40;;;;;;;14.30;12.80;;;;;;;6.38;100.00;99401.38;109698;1250;65329;-77
2023/04/08 08:16:10;;;;;;;15.40;13.80;;;;;;;6.30;100.00;99397.86;109691;1251;59027;-76
2023/04/08 08:18:38;;;;;;;16.70;15.10;;;;;;;6.35;100.00;99397.13;109666;1250;62866;-76
2023/04/08 08:21:05;;;;;;;17.70;15.50;;;;;;;6.41;100.00;99396.16;109173;1249;59294;-76
2023/04/08 08:23:32;;;;;;;16.00;14.40;;;;;;;6.45;100.00;99395.29;109731;1250;59042;-76
2023/04/08 08:26:08;;;;;;;17.10;15.40;;;;;;;6.61;100.00;99396.55;109690;1251;66014;-76
2023/04/08 08:28:35;;;;;;;14.50;13.10;;;;;;;6.73;100.00;99396.66;109714;1250;59055;-77
2023/04/08 08:31:02;;;;;;;14.70;13.20;;;;;;;6.81;100.00;99395.29;109666;1250;64040;-76
2023/04/08 08:33:28;;;;;;;15.00;13.50;;;;;;;6.84;100.00;99399.23;109529;1250;59202;-75
2023/04/08 08:35:56;;;;;;;13.60;12.20;;;;;;;6.85;100.00;99401.10;109228;1249;59103;-76
2023/04/08 08:38:24;;;;;;;15.00;13.50;;;;;;;6.88;100.00;99405.20;109743;1250;66152;-75
2023/04/08 08:40:55;;;;;;;15.70;14.20;;;;;;;7.02;100.00;99403.16;109694;1250;59041;-76
2023/04/08 08:43:23;;;;;;;13.90;12.50;;;;;;;7.22;100.00;99407.70;109553;1251;64049;-76
2023/04/08 08:45:50;;;;;;;13.50;12.20;;;;;;;7.36;100.00;99412.52;109656;1249;58955;-76
2023/04/08 08:48:16;;;;;;;16.20;14.70;;;;;;;7.59;100.00;99414.42;109631;1251;58979;-76
2023/04/08 08:50:43;;;;;;;13.60;12.30;;;;;;;7.81;100.00;99416.73;109700;1251;64786;-77
2023/04/08 08:53:09;;;;;;;13.50;12.20;;;;;;;7.96;100.00;99412.84;109496;1251;60105;-77
2023/04/08 08:55:38;;;;;;;12.90;11.60;;;;;;;8.01;100.00;99412.60;109418;1250;64183;-76
2023/04/08 08:58:06;;;;;;;12.30;11.10;;;;;;;8.00;100.00;99413.35;109696;1250;59080;-77
2023/04/08 09:00:37;;;;;;;12.90;11.60;;;;;;;8.01;100.00;99409.23;109749;1250;59126;-77
2023/04/08 09:03:21;;;;;;;14.50;13.10;;;;;;;8.10;100.00;99408.06;109709;1250;64710;-77
2023/04/08 09:05:55;;;;;;;21.80;19.20;;;;;;;8.21;100.00;99416.17;109719;1250;60294;-78
2023/04/08 09:08:23;;;;;;;13.70;12.30;;;;;;;8.15;100.00;99416.46;109548;1250;63858;-77
2023/04/08 09:10:49;;;;;;;11.60;10.50;;;;;;;7.96;100.00;99421.27;109706;1250;58957;-77
2023/04/08 09:13:16;;;;;;;12.80;11.50;;;;;;;7.88;100.00;99420.83;109714;1250;58936;-77
2023/04/08 09:16:02;;;;;;;11.90;10.70;;;;;;;7.91;100.00;99422.61;109719;1250;66137;-78
2023/04/08 09:18:29;;;;;;;14.50;13.10;;;;;;;7.95;100.00;99423.68;109706;1250;60115;-75
2023/04/08 09:20:58;;;;;;;12.70;11.40;;;;;;;8.02;100.00;99422.23;109612;1250;64036;-75
2023/04/08 09:23:36;;;;;;;12.50;11.30;;;;;;;8.20;100.00;99419.95;109289;1249;149934;-75
2023/04/08 09:26:14;;;;;;;10.90;9.80;;;;;;;8.37;100.00;99422.99;109741;1249;58935;-77
2023/04/08 09:28:43;;;;;;;11.00;10.00;;;;;;;8.38;100.00;99421.36;109715;1250;64794;-75
2023/04/08 09:31:23;;;;;;;9.90;9.00;;;;;;;8.57;100.00;99420.19;109753;1250;59096;-75
2023/04/08 09:33:51;;;;;;;;;;;;;;;8.83;100.00;99422.36;109698;1250;62814;-76
2023/04/08 09:36:18;;;;;;;10.70;9.70;;;;;;;9.07;100.00;99431.05;109682;1249;59178;-76
2023/04/08 09:38:45;;;;;;;9.20;8.40;;;;;;;9.15;100.00;99432.38;109713;1249;59011;-76
2023/04/08 09:41:15;;;;;;;9.10;8.30;;;;;;;9.22;100.00;99434.27;109525;1249;64863;-75
2023/04/08 09:43:54;;;;;;;9.60;8.80;;;;;;;9.42;100.00;99437.26;109747;1250;60199;-75
2023/04/08 09:46:50;;;;;;;9.60;8.70;;;;;;;9.66;100.00;99426.20;109728;1249;64492;-77
2023/04/08 09:49:28;;;;;;;8.50;7.80;;;;;;;10.13;100.00;99427.23;108839;1261;59184;-76
2023/04/08 09:52:08;;;;;;;9.00;8.20;;;;;;;10.29;100.00;99424.34;108907;1259;59082;-76
2023/04/08 09:54:54;;;;;;;8.40;7.70;;;;;;;10.51;100.00;99422.70;108874;1259;66105;-77
2023/04/08 09:57:40;;;;;;;8.50;7.80;;;;;;;10.76;100.00;99422.30;108952;1259;59155;-77
2023/04/08 10:00:11;;;;;;;7.70;6.80;;;;;;;10.98;100.00;99429.12;108959;1259;62904;-78
2023/04/08 10:02:46;;;;;;;8.40;7.70;;;;;;;11.08;100.00;99426.92;108933;1259;58983;-77
2023/04/08 10:05:14;;;;;;;7.80;7.20;;;;;;;11.08;100.00;99422.96;108935;1259;59084;-77
2023/04/08 10:07:41;;;;;;;8.60;7.70;;;;;;;11.06;100.00;99420.98;108922;1258;66030;-77
2023/04/08 10:10:10;;;;;;;8.10;7.40;;;;;;;11.08;100.00;99421.36;108925;1260;60131;-77
2023/04/08 10:12:37;;;;;;;8.90;8.10;;;;;;;11.06;100.00;99421.70;108934;1259;64498;-77
2023/04/08 10:15:25;;;;;;;11.90;10.70;;;;;;;11.03;100.00;99416.02;108978;1259;59027;-77
2023/04/08 10:17:53;;;;;;;13.70;12.40;;;;;;;11.02;100.00;99412.88;108964;1259;59118;-77
2023/04/08 10:20:34;;;;;;;8.50;7.60;;;;;;;10.96;100.00;99416.60;108981;1259;65093;-77
2023/04/08 10:23:09;;;;;;;11.70;10.60;;;;;;;10.73;100.00;99418.88;108960;1258;60168;-78
2023/04/08 10:25:37;;;;;;;12.40;10.20;;;;;;;10.71;100.00;99425.76;108880;1254;64077;-77
2023/04/08 10:28:10;;;;;;;8.40;7.60;;;;;;;10.60;100.00;99429.64;109333;1253;59122;-78
2023/04/08 10:30:43;;;;;;;7.50;6.70;;;;;;;10.38;100.00;99432.04;109340;1254;58998;-78
2023/04/08 10:33:10;;;;;;;8.10;7.40;;;;;;;10.14;100.00;99433.55;109338;1253;64852;-78
2023/04/08 10:35:59;;;;;;;8.00;7.20;;;;;;;10.05;100.00;99436.04;109335;1254;60142;-78
2023/04/08 10:38:26;;;;;;;8.10;7.40;;;;;;;10.03;100.00;99432.60;108775;1261;64034;-79
2023/04/08 10:40:53;;;;;;;8.40;7.50;;;;;;;10.17;100.00;99430.73;108798;1261;59054;-77
2023/04/08 10:43:20;;;;;;;9.10;7.80;;;;;;;10.26;100.00;99434.48;108830;1262;59085;-78
2023/04/08 10:45:50;;;;;;;9.40;8.10;;;;;;;10.33;100.00;99430.67;108821;1261;66020;-78
2023/04/08 10:48:23;;;;;;;8.50;7.70;;;;;;;10.45;100.00;99424.34;108845;1262;60271;-78
2023/04/08 10:50:53;;;;;;;9.30;8.40;;;;;;;10.59;100.00;99426.90;108805;1261;64041;-78
2023/04/08 10:53:29;;;;;;;8.80;8.00;;;;;;;10.82;100.00;99423.70;108663;1261;59118;-77
2023/04/08 10:56:17;;;;;;;9.00;8.10;;;;;;;11.09;100.00;99416.32;108751;1259;59059;-77
2023/04/08 10:58:48;;;;;;;8.80;8.00;;;;;;;11.45;100.00;99415.64;108917;1259;64762;-77
2023/04/08 11:01:16;;;;;;;9.80;8.90;;;;;;;11.70;100.00;99414.40;108894;1259;60089;-77
2023/04/08 11:03:43;;;;;;;10.40;9.40;;;;;;;11.87;100.00;99413.70;108903;1259;64103;-78
2023/04/08 11:06:10;;;;;;;10.30;9.30;;;;;;;11.99;100.00;99421.48;108929;1259;59308;-76
2023/04/08 11:08:37;;;;;;;9.60;8.70;;;;;;;12.05;100.00;99419.27;108951;1259;59169;-77
2023/04/08 11:11:09;;;;;;;10.80;9.80;;;;;;;11.97;100.00;99417.48;108895;1259;66026;-77
2023/04/08 11:13:39;;;;;;;10.80;9.70;;;;;;;11.94;100.00;99418.41;108958;1259;60392;-77
2023/04/08 11:16:10;;;;;;;10.50;9.50;;;;;;;11.98;100.00;99422.05;109469;1250;63747;-78